Time;durP1;ratioP1;P1;durP2;ratioP2;P2;SDS_P1;SDS_P2;PMS_P1;PMS_P2;Temp;Humidity;BMP_temperature;BMP_pressure;BME280_temperature;BME280_humidity;BME280_pressure;Samples;Min_cycle;Max_cycle;Signal;HPM_P1;HPM_P2
2024/03/26 00:01:05;;;;;;;4.53;2.28;;;7.50;70.80;;;;;;5068888;28;20058;-65
2024/03/26 00:03:32;;;;;;;3.58;2.00;;;7.50;70.80;;;;;;5062895;28;20020;-66
2024/03/26 00:05:57;;;;;;;4.40;1.80;;;7.50;70.90;;;;;;5067170;28;20034;-66
2024/03/26 00:08:23;;;;;;;2.72;1.70;;;7.50;70.90;;;;;;5070102;28;20025;-66
2024/03/26 00:10:48;;;;;;;3.00;1.98;;;7.50;71.00;;;;;;5068092;28;20700;-65
2024/03/26 00:13:14;;;;;;;3.67;1.95;;;7.50;71.10;;;;;;5069198;28;20036;-65
2024/03/26 00:15:40;;;;;;;3.20;1.70;;;7.50;71.10;;;;;;5070318;28;20024;-66
2024/03/26 00:18:05;;;;;;;3.63;1.80;;;7.50;71.00;;;;;;5071084;28;20024;-66
2024/03/26 00:20:31;;;;;;;3.03;1.80;;;7.40;71.70;;;;;;5068522;28;20027;-65
2024/03/26 00:22:57;;;;;;;3.65;1.90;;;7.40;71.10;;;;;;5064779;28;20048;-65
2024/03/26 00:25:22;;;;;;;3.33;1.98;;;7.40;71.10;;;;;;5065462;28;20017;-67
2024/03/26 00:27:48;;;;;;;3.50;2.00;;;7.40;71.20;;;;;;5063637;28;20032;-67
2024/03/26 00:30:13;;;;;;;5.70;2.53;;;7.40;71.10;;;;;;5067109;28;20074;-67
2024/03/26 00:32:39;;;;;;;3.70;2.15;;;7.40;71.20;;;;;;5067677;28;20028;-66
2024/03/26 00:35:05;;;;;;;2.95;1.98;;;7.40;71.30;;;;;;5069551;28;20024;-66
2024/03/26 00:37:32;;;;;;;2.30;1.80;;;7.30;71.30;;;;;;5068673;28;20033;-67
2024/03/26 00:39:57;;;;;;;3.33;1.98;;;7.30;71.40;;;;;;5067271;28;20025;-65
2024/03/26 00:42:23;;;;;;;5.35;2.42;;;7.30;71.50;;;;;;5068911;28;20025;-67
2024/03/26 00:44:48;;;;;;;3.53;2.20;;;7.20;71.50;;;;;;5067673;28;20048;-67
2024/03/26 00:47:14;;;;;;;3.90;2.05;;;7.20;71.60;;;;;;5069157;28;20032;-66
2024/03/26 00:49:39;;;;;;;4.55;2.00;;;7.20;71.70;;;;;;5064561;28;20410;-67
2024/03/26 00:52:05;;;;;;;3.60;1.98;;;7.20;71.60;;;;;;5066556;28;20024;-67
2024/03/26 00:54:30;;;;;;;3.78;2.05;;;7.20;71.70;;;;;;5069277;28;20475;-66
2024/03/26 00:56:56;;;;;;;4.18;2.13;;;7.20;71.70;;;;;;5067786;28;20033;-66
2024/03/26 00:59:22;;;;;;;4.70;2.25;;;7.20;71.80;;;;;;5068529;28;20013;-66
2024/03/26 01:01:47;;;;;;;4.53;1.88;;;7.20;71.80;;;;;;5068559;28;20387;-67
2024/03/26 01:04:13;;;;;;;4.97;2.17;;;7.10;71.80;;;;;;5066668;28;20112;-66
2024/03/26 01:06:40;;;;;;;5.28;2.22;;;7.20;72.50;;;;;;5071488;28;20364;-66
2024/03/26 01:09:07;;;;;;;2.65;1.77;;;7.10;71.70;;;;;;5070265;28;20295;-66
2024/03/26 01:11:33;;;;;;;3.03;1.90;;;7.10;71.80;;;;;;5068466;28;20382;-66
2024/03/26 01:13:58;;;;;;;3.97;1.88;;;7.10;71.80;;;;;;5066699;28;20111;-66
2024/03/26 01:16:24;;;;;;;4.82;1.98;;;7.10;71.80;;;;;;5061194;28;20078;-65
2024/03/26 01:18:49;;;;;;;4.43;2.28;;;7.10;71.80;;;;;;5067524;28;20107;-65
2024/03/26 01:21:15;;;;;;;2.83;1.65;;;7.10;71.80;;;;;;5069497;28;20070;-66
2024/03/26 01:23:42;;;;;;;3.97;2.10;;;7.10;71.80;;;;;;5070400;28;20521;-65
2024/03/26 01:26:07;;;;;;;5.47;2.40;;;7.10;71.80;;;;;;5065533;28;20016;-66
2024/03/26 01:28:33;;;;;;;4.43;2.40;;;7.10;71.80;;;;;;5072799;28;20082;-66
2024/03/26 01:30:58;;;;;;;4.68;2.00;;;7.00;71.80;;;;;;5067669;28;20494;-65
2024/03/26 01:33:24;;;;;;;4.75;2.30;;;7.10;72.00;;;;;;5064098;28;20368;-67
2024/03/26 01:35:53;;;;;;;3.20;1.80;;;7.10;71.80;;;;;;5067175;28;20031;-66
2024/03/26 01:38:19;;;;;;;2.85;1.83;;;7.00;71.80;;;;;;5072768;28;20078;-64
2024/03/26 01:40:44;;;;;;;2.92;1.63;;;7.00;71.80;;;;;;5070870;28;20020;-65
2024/03/26 01:43:10;;;;;;;3.90;1.90;;;7.00;71.80;;;;;;5070522;28;20502;-66
2024/03/26 01:45:36;;;;;;;6.60;2.22;;;7.00;71.90;;;;;;5070978;28;20021;-66
2024/03/26 01:48:02;;;;;;;3.75;2.20;;;7.00;71.90;;;;;;5067806;28;20483;-67
2024/03/26 01:50:28;;;;;;;4.75;2.30;;;7.00;72.00;;;;;;5069475;28;20907;-67
2024/03/26 01:52:53;;;;;;;4.68;2.20;;;6.90;72.00;;;;;;5063427;28;20025;-66
2024/03/26 01:55:20;;;;;;;5.20;2.20;;;6.90;72.00;;;;;;5068243;28;20556;-66
2024/03/26 01:57:46;;;;;;;5.72;2.50;;;6.90;72.00;;;;;;5069013;28;20700;-66
2024/03/26 02:00:14;;;;;;;3.92;1.75;;;6.90;72.00;;;;;;5066293;28;20032;-65
2024/03/26 02:02:39;;;;;;;4.32;2.20;;;6.90;72.00;;;;;;5072451;28;20090;-65
2024/03/26 02:05:05;;;;;;;3.65;1.90;;;6.90;72.00;;;;;;5071301;28;20121;-65
2024/03/26 02:07:31;;;;;;;6.18;2.05;;;6.90;72.00;;;;;;5071479;28;20506;-65
2024/03/26 02:09:57;;;;;;;5.43;2.33;;;6.90;72.00;;;;;;5069963;28;20067;-65
2024/03/26 02:12:22;;;;;;;6.05;2.40;;;6.90;72.00;;;;;;5074296;28;20036;-65
2024/03/26 02:14:48;;;;;;;3.90;2.33;;;6.90;72.00;;;;;;5072227;28;20016;-65
2024/03/26 02:17:14;;;;;;;6.38;2.30;;;6.90;72.10;;;;;;5072059;28;20386;-66
2024/03/26 02:19:39;;;;;;;2.47;1.95;;;6.80;72.10;;;;;;5073574;28;20426;-65
2024/03/26 02:22:05;;;;;;;5.82;2.40;;;6.90;72.10;;;;;;5067942;28;20406;-64
2024/03/26 02:24:33;;;;;;;5.47;2.70;;;6.90;72.00;;;;;;5067110;28;20082;-65
2024/03/26 02:26:59;;;;;;;5.38;2.47;;;6.80;72.10;;;;;;5069947;28;20029;-64
2024/03/26 02:29:25;;;;;;;2.90;1.90;;;6.80;72.20;;;;;;5068257;28;20020;-65
2024/03/26 02:31:51;;;;;;;5.63;2.35;;;6.80;72.10;;;;;;5069555;28;20040;-69
2024/03/26 02:34:16;;;;;;;4.72;1.73;;;6.80;72.20;;;;;;5068628;28;20064;-66
2024/03/26 02:36:42;;;;;;;3.05;2.10;;;6.90;72.10;;;;;;5068496;28;20134;-65
2024/03/26 02:39:08;;;;;;;3.05;2.00;;;6.90;72.20;;;;;;5066595;28;20051;-65
2024/03/26 02:41:35;;;;;;;3.47;1.90;;;6.90;72.10;;;;;;5071327;28;20025;-65
2024/03/26 02:44:01;;;;;;;6.15;2.28;;;6.90;72.10;;;;;;5075365;28;20025;-67
2024/03/26 02:46:27;;;;;;;3.05;1.85;;;6.90;72.00;;;;;;5071694;28;20025;-65
2024/03/26 02:48:52;;;;;;;3.67;1.75;;;6.90;72.20;;;;;;5070999;28;20459;-67
2024/03/26 02:51:18;;;;;;;2.65;1.70;;;6.90;72.10;;;;;;5068473;28;20017;-65
2024/03/26 02:53:43;;;;;;;3.85;2.00;;;6.90;72.00;;;;;;5069398;28;20021;-66
2024/03/26 02:56:09;;;;;;;2.85;1.80;;;6.90;72.00;;;;;;5065947;28;20016;-67
2024/03/26 02:58:34;;;;;;;4.07;2.00;;;6.90;72.10;;;;;;5067579;28;20564;-65
2024/03/26 03:01:07;;;;;;;3.75;2.08;;;6.80;72.00;;;;;;5073925;28;20020;-65
2024/03/26 03:03:33;;;;;;;2.38;1.90;;;6.90;72.20;;;;;;5069707;28;20471;-66
2024/03/26 03:05:58;;;;;;;5.82;2.40;;;6.90;72.30;;;;;;5069339;28;20024;-65
2024/03/26 03:08:24;;;;;;;5.85;2.20;;;6.90;72.30;;;;;;5068856;28;20028;-66
2024/03/26 03:10:49;;;;;;;2.65;1.90;;;6.80;72.20;;;;;;5072100;28;20078;-66
2024/03/26 03:13:15;;;;;;;3.38;1.88;;;6.80;72.30;;;;;;5064276;28;20530;-69
2024/03/26 03:15:40;;;;;;;4.93;2.15;;;6.80;72.20;;;;;;5067940;28;20534;-66
2024/03/26 03:18:06;;;;;;;3.80;2.10;;;6.80;72.30;;;;;;5070552;28;20025;-68
2024/03/26 03:20:32;;;;;;;3.20;1.90;;;6.80;72.40;;;;;;5070298;28;20029;-65
2024/03/26 03:22:57;;;;;;;3.42;1.90;;;6.80;72.40;;;;;;5071775;28;20035;-67
2024/03/26 03:25:23;;;;;;;4.75;2.28;;;6.80;72.40;;;;;;5070037;28;20024;-66
2024/03/26 03:27:48;;;;;;;4.57;2.15;;;6.80;72.40;;;;;;5070485;28;20470;-65
2024/03/26 03:30:14;;;;;;;4.07;2.22;;;6.70;72.40;;;;;;5068262;28;20074;-64
2024/03/26 03:32:39;;;;;;;3.47;2.00;;;6.70;72.40;;;;;;5071643;28;20052;-66
2024/03/26 03:35:05;;;;;;;5.30;2.10;;;6.70;72.60;;;;;;5070120;28;20086;-67
2024/03/26 03:37:30;;;;;;;4.97;2.30;;;6.70;72.70;;;;;;5066227;28;20029;-64
2024/03/26 03:39:57;;;;;;;5.55;2.38;;;6.70;72.80;;;;;;5065598;28;20025;-66
2024/03/26 03:42:22;;;;;;;4.65;2.17;;;6.70;72.70;;;;;;5069774;28;20115;-65
2024/03/26 03:44:48;;;;;;;3.80;2.00;;;6.70;72.80;;;;;;5069104;28;20049;-65
2024/03/26 03:47:13;;;;;;;4.90;2.00;;;6.70;72.80;;;;;;5066045;28;20060;-66
2024/03/26 03:49:40;;;;;;;3.38;2.15;;;6.60;72.70;;;;;;5073141;28;20036;-64
2024/03/26 03:52:05;;;;;;;4.15;2.22;;;6.60;72.80;;;;;;5067621;28;20028;-68
2024/03/26 03:54:31;;;;;;;4.90;2.10;;;6.60;72.80;;;;;;5071205;28;20035;-66
2024/03/26 03:56:57;;;;;;;3.67;2.08;;;6.60;73.00;;;;;;5068932;28;20036;-64
2024/03/26 03:59:22;;;;;;;3.90;2.00;;;6.60;73.00;;;;;;5068569;28;20028;-65
2024/03/26 04:01:48;;;;;;;5.57;2.25;;;6.50;73.10;;;;;;5069658;28;20502;-65
2024/03/26 04:04:14;;;;;;;4.15;2.28;;;6.50;73.10;;;;;;5069542;28;20028;-66
2024/03/26 04:06:39;;;;;;;5.03;1.88;;;6.50;73.10;;;;;;5070864;28;20429;-64
2024/03/26 04:09:05;;;;;;;3.92;2.20;;;6.50;73.10;;;;;;5072980;28;20024;-64
2024/03/26 04:11:31;;;;;;;4.35;2.25;;;6.50;73.10;;;;;;5064373;28;20086;-67
2024/03/26 04:13:57;;;;;;;3.63;1.80;;;6.50;73.10;;;;;;5069152;28;20632;-67
2024/03/26 04:16:23;;;;;;;4.05;1.90;;;6.50;73.10;;;;;;5068862;28;20056;-67
2024/03/26 04:18:49;;;;;;;3.95;2.10;;;6.50;73.10;;;;;;5067908;28;20031;-67
2024/03/26 04:21:15;;;;;;;5.38;2.15;;;6.50;73.30;;;;;;5071683;28;20047;-67
2024/03/26 04:23:40;;;;;;;3.42;2.10;;;6.50;73.20;;;;;;5069552;28;20032;-65
2024/03/26 04:26:06;;;;;;;4.55;1.98;;;6.50;73.80;;;;;;5072584;28;20032;-66
2024/03/26 04:28:32;;;;;;;2.80;1.90;;;6.50;73.20;;;;;;5065327;28;20081;-65
2024/03/26 04:30:57;;;;;;;5.65;2.10;;;6.40;73.20;;;;;;5066452;28;20032;-67
2024/03/26 04:33:23;;;;;;;3.83;2.30;;;6.40;73.20;;;;;;5069849;28;20096;-66
2024/03/26 04:35:48;;;;;;;2.70;1.83;;;6.40;73.30;;;;;;5067297;28;20112;-67
2024/03/26 04:38:14;;;;;;;3.42;1.92;;;6.40;73.30;;;;;;5065503;28;20025;-67
2024/03/26 04:40:40;;;;;;;3.35;1.77;;;6.40;73.20;;;;;;5066205;28;20391;-66
2024/03/26 04:43:06;;;;;;;3.03;1.90;;;6.40;73.30;;;;;;5066143;28;20024;-65
2024/03/26 04:45:33;;;;;;;2.85;1.90;;;6.40;73.40;;;;;;5075534;28;20025;-70
2024/03/26 04:47:58;;;;;;;3.67;2.15;;;6.40;73.40;;;;;;5066161;28;20097;-68
2024/03/26 04:50:24;;;;;;;3.78;2.28;;;6.30;73.40;;;;;;5071655;28;20123;-65
2024/03/26 04:52:49;;;;;;;3.83;2.25;;;6.30;73.50;;;;;;5068353;28;20133;-65
2024/03/26 04:55:15;;;;;;;5.35;2.15;;;6.30;73.60;;;;;;5070293;28;20558;-66
2024/03/26 04:57:41;;;;;;;3.60;2.00;;;6.30;73.60;;;;;;5068742;28;20512;-68
2024/03/26 05:00:07;;;;;;;3.35;2.08;;;6.30;73.70;;;;;;5070758;28;20122;-68
2024/03/26 05:02:33;;;;;;;3.70;2.00;;;6.20;73.70;;;;;;5071660;28;20039;-67
2024/03/26 05:04:59;;;;;;;4.70;2.40;;;6.20;73.80;;;;;;5066209;28;20496;-67
2024/03/26 05:07:24;;;;;;;6.43;2.47;;;6.20;73.80;;;;;;5065240;28;20554;-67
2024/03/26 05:09:50;;;;;;;4.50;2.30;;;6.20;73.90;;;;;;5071099;28;20028;-67
2024/03/26 05:12:15;;;;;;;3.58;2.20;;;6.20;73.90;;;;;;5067663;28;20639;-68
2024/03/26 05:14:41;;;;;;;3.40;2.03;;;6.10;73.90;;;;;;5071095;28;20396;-67
2024/03/26 05:17:06;;;;;;;5.13;2.30;;;6.10;74.00;;;;;;5068555;28;20513;-66
2024/03/26 05:19:32;;;;;;;4.35;2.00;;;6.10;74.10;;;;;;5076319;28;20035;-66
2024/03/26 05:21:58;;;;;;;2.53;2.08;;;6.10;74.10;;;;;;5072640;28;20032;-71
2024/03/26 05:24:23;;;;;;;2.80;2.15;;;6.10;74.10;;;;;;5067021;28;20082;-66
2024/03/26 05:26:48;;;;;;;6.18;2.58;;;6.10;74.20;;;;;;5073796;28;20024;-66
2024/03/26 05:29:17;;;;;;;4.00;2.22;;;6.10;74.20;;;;;;5073310;28;20433;-72
2024/03/26 05:31:43;;;;;;;3.58;1.70;;;6.10;74.20;;;;;;5075015;28;20501;-66
2024/03/26 05:34:08;;;;;;;2.72;1.90;;;6.10;74.20;;;;;;5072771;28;20029;-67
2024/03/26 05:36:34;;;;;;;3.42;1.63;;;6.10;74.20;;;;;;5072620;28;20032;-65
2024/03/26 05:39:00;;;;;;;3.90;2.30;;;6.10;74.20;;;;;;5076275;28;20059;-67
2024/03/26 05:41:25;;;;;;;3.40;2.00;;;6.10;74.20;;;;;;5072005;28;20075;-67
2024/03/26 05:43:52;;;;;;;4.85;2.00;;;6.10;74.20;;;;;;5079887;28;20035;-65
2024/03/26 05:46:18;;;;;;;4.50;2.17;;;6.10;74.20;;;;;;5077514;28;20091;-66
2024/03/26 05:48:44;;;;;;;2.78;2.10;;;6.10;74.20;;;;;;5075396;28;20112;-66
2024/03/26 05:51:09;;;;;;;5.25;2.85;;;6.20;74.10;;;;;;5073316;28;20024;-66
2024/03/26 05:53:35;;;;;;;5.18;2.10;;;6.20;74.10;;;;;;5069286;28;20021;-66
2024/03/26 05:56:00;;;;;;;2.42;1.70;;;6.20;74.10;;;;;;5074873;28;20039;-66
2024/03/26 05:58:26;;;;;;;3.70;2.03;;;6.30;74.10;;;;;;5076639;28;20032;-67
2024/03/26 06:00:52;;;;;;;3.70;2.20;;;6.30;74.10;;;;;;5071288;28;20069;-65
2024/03/26 06:03:18;;;;;;;4.75;2.45;;;6.30;74.10;;;;;;5075976;28;20120;-69
2024/03/26 06:05:44;;;;;;;3.50;1.90;;;6.40;74.00;;;;;;5073927;28;20095;-66
2024/03/26 06:08:09;;;;;;;3.30;2.05;;;6.60;73.70;;;;;;5081971;28;20052;-66
2024/03/26 06:10:35;;;;;;;3.45;2.00;;;7.00;73.10;;;;;;5069824;28;20031;-66
2024/03/26 06:13:01;;;;;;;4.30;2.13;;;7.50;72.10;;;;;;5073208;28;20090;-66
2024/03/26 06:15:27;;;;;;;4.57;2.08;;;7.70;70.90;;;;;;5069257;28;20628;-67
2024/03/26 06:17:52;;;;;;;5.35;2.10;;;7.90;70.50;;;;;;5073208;28;20055;-68
2024/03/26 06:20:18;;;;;;;3.00;1.90;;;8.00;69.80;;;;;;5075311;28;20559;-66
2024/03/26 06:22:43;;;;;;;3.22;1.70;;;7.90;69.80;;;;;;5071964;28;20449;-66
2024/03/26 06:25:09;;;;;;;4.05;1.92;;;7.70;70.30;;;;;;5074104;28;20079;-67
2024/03/26 06:27:35;;;;;;;3.40;1.92;;;7.60;70.70;;;;;;5082770;28;20019;-68
2024/03/26 06:30:00;;;;;;;3.67;2.25;;;7.50;70.70;;;;;;5071927;28;20054;-65
2024/03/26 06:32:26;;;;;;;3.17;1.92;;;7.50;71.20;;;;;;5070592;28;20035;-65
2024/03/26 06:34:52;;;;;;;3.05;2.00;;;7.40;71.10;;;;;;5074483;28;20383;-65
2024/03/26 06:37:17;;;;;;;3.53;2.10;;;7.40;71.30;;;;;;5073928;28;20050;-66
2024/03/26 06:39:43;;;;;;;3.47;2.30;;;7.40;71.20;;;;;;5074212;28;20031;-65
2024/03/26 06:42:08;;;;;;;2.95;1.90;;;7.40;71.10;;;;;;5076518;28;20086;-65
2024/03/26 06:44:34;;;;;;;4.60;2.30;;;7.50;71.40;;;;;;5070691;28;20095;-67
2024/03/26 06:46:59;;;;;;;3.55;2.03;;;7.70;71.40;;;;;;5074395;28;20024;-66
2024/03/26 06:49:25;;;;;;;4.55;2.42;;;7.70;71.00;;;;;;5066342;28;20020;-68
2024/03/26 06:51:51;;;;;;;4.10;2.08;;;7.80;70.80;;;;;;5074939;28;20024;-66
2024/03/26 06:54:17;;;;;;;4.38;2.33;;;7.80;70.70;;;;;;5071959;28;20078;-67
2024/03/26 06:56:43;;;;;;;4.35;2.20;;;7.80;70.60;;;;;;5071100;28;20029;-67
2024/03/26 06:59:08;;;;;;;4.03;2.00;;;7.80;70.50;;;;;;5078116;28;20024;-65
2024/03/26 07:01:34;;;;;;;4.47;2.13;;;7.80;70.90;;;;;;5071289;28;20017;-65
2024/03/26 07:04:00;;;;;;;3.00;2.08;;;7.80;70.40;;;;;;5070388;28;20016;-69
2024/03/26 07:06:25;;;;;;;3.33;2.20;;;7.80;70.70;;;;;;5068604;28;20029;-67
2024/03/26 07:08:51;;;;;;;4.15;2.35;;;7.80;70.70;;;;;;5070410;28;20435;-67
2024/03/26 07:11:16;;;;;;;4.47;2.40;;;7.80;70.30;;;;;;5073817;28;20016;-65
2024/03/26 07:13:42;;;;;;;3.63;1.95;;;7.80;70.30;;;;;;5073294;28;20538;-66
2024/03/26 07:16:08;;;;;;;3.72;1.90;;;7.80;70.30;;;;;;5075690;28;20063;-67
2024/03/26 07:18:34;;;;;;;4.45;2.20;;;7.80;70.40;;;;;;5081968;28;20027;-69
2024/03/26 07:21:00;;;;;;;2.90;1.85;;;7.90;70.50;;;;;;5070711;28;20507;-69
2024/03/26 07:23:28;;;;;;;2.40;2.05;;;7.90;70.10;;;;;;5076062;28;20082;-70
2024/03/26 07:25:55;;;;;;;3.08;2.13;;;8.00;70.30;;;;;;5068026;28;20063;-68
2024/03/26 07:28:21;;;;;;;3.03;2.00;;;8.00;70.20;;;;;;5070525;28;20048;-65
2024/03/26 07:30:46;;;;;;;4.55;2.22;;;8.10;70.20;;;;;;5069138;28;20071;-67
2024/03/26 07:33:12;;;;;;;3.40;2.10;;;8.00;69.40;;;;;;5076832;28;20051;-67
2024/03/26 07:35:39;;;;;;;4.18;2.10;;;8.00;69.90;;;;;;5077364;28;20077;-64
2024/03/26 07:38:04;;;;;;;3.67;1.95;;;8.00;70.00;;;;;;5072092;28;20029;-66
2024/03/26 07:40:30;;;;;;;3.65;2.05;;;8.10;70.00;;;;;;5069710;28;20070;-65
2024/03/26 07:42:56;;;;;;;5.07;2.30;;;8.10;70.00;;;;;;5072383;28;20024;-65
2024/03/26 07:45:22;;;;;;;3.90;2.00;;;8.20;69.80;;;;;;5067615;28;20012;-66
2024/03/26 07:47:47;;;;;;;2.72;2.08;;;8.30;69.90;;;;;;5075396;28;20033;-66
2024/03/26 07:50:13;;;;;;;5.07;2.30;;;8.50;69.70;;;;;;5074774;28;20667;-67
2024/03/26 07:52:39;;;;;;;4.55;2.13;;;8.50;68.80;;;;;;5070400;28;20056;-66
2024/03/26 07:55:05;;;;;;;3.47;2.25;;;8.50;69.00;;;;;;5070056;28;20013;-66
2024/03/26 07:57:30;;;;;;;3.88;2.00;;;8.60;68.70;;;;;;5070149;28;20475;-67
2024/03/26 07:59:56;;;;;;;4.32;2.03;;;8.70;68.90;;;;;;5073555;28;20039;-66
2024/03/26 08:02:21;;;;;;;5.28;2.30;;;8.80;68.50;;;;;;5064232;28;20122;-66
2024/03/26 08:04:49;;;;;;;3.55;1.98;;;8.90;68.30;;;;;;5067599;28;20024;-66
2024/03/26 08:07:15;;;;;;;2.00;1.70;;;8.90;68.50;;;;;;5070358;28;20013;-67
2024/03/26 08:09:41;;;;;;;2.25;1.75;;;9.00;68.30;;;;;;5083441;28;20020;-66
2024/03/26 08:12:07;;;;;;;2.35;1.73;;;9.10;68.30;;;;;;5076009;28;20028;-65
2024/03/26 08:14:33;;;;;;;5.13;2.15;;;9.20;67.80;;;;;;5073937;28;20411;-67
2024/03/26 08:16:59;;;;;;;3.33;2.30;;;9.10;67.40;;;;;;5073183;28;20032;-67
2024/03/26 08:19:24;;;;;;;3.92;2.30;;;9.10;67.90;;;;;;5076401;28;20047;-67
2024/03/26 08:21:50;;;;;;;4.43;2.25;;;9.20;67.40;;;;;;5071027;28;20597;-66
2024/03/26 08:24:16;;;;;;;3.63;2.03;;;9.30;67.90;;;;;;5068283;28;20040;-66
2024/03/26 08:26:41;;;;;;;2.88;1.77;;;9.40;67.70;;;;;;5077790;28;20107;-66
2024/03/26 08:29:07;;;;;;;3.70;2.20;;;9.40;67.60;;;;;;5080494;28;20381;-67
2024/03/26 08:31:32;;;;;;;4.45;1.80;;;9.40;67.20;;;;;;5068767;28;20017;-71
2024/03/26 08:33:58;;;;;;;2.30;1.70;;;9.50;67.80;;;;;;5077929;28;20551;-66
2024/03/26 08:36:23;;;;;;;3.70;1.90;;;9.50;67.30;;;;;;5079572;28;20439;-67
2024/03/26 08:38:51;;;;;;;2.72;1.92;;;9.50;67.60;;;;;;5070669;28;20024;-66
2024/03/26 08:41:16;;;;;;;4.03;2.00;;;9.40;67.40;;;;;;5065946;28;20111;-65
2024/03/26 08:43:42;;;;;;;2.90;1.90;;;9.30;67.80;;;;;;5077255;28;20554;-66
2024/03/26 08:46:08;;;;;;;3.15;2.00;;;9.30;68.20;;;;;;5068991;28;20031;-68
2024/03/26 08:48:34;;;;;;;2.90;1.73;;;9.40;68.20;;;;;;5077462;28;20069;-69
2024/03/26 08:50:59;;;;;;;3.13;1.80;;;9.40;68.40;;;;;;5069608;28;20024;-66
2024/03/26 08:53:25;;;;;;;3.13;1.80;;;9.40;68.40;;;;;;5059816;28;20024;-69
2024/03/26 08:55:51;;;;;;;2.53;1.80;;;9.50;68.30;;;;;;5066412;28;20103;-65
2024/03/26 08:58:16;;;;;;;3.20;1.90;;;9.50;68.30;;;;;;5066596;28;20102;-67
2024/03/26 09:00:42;;;;;;;1.75;1.60;;;9.50;68.10;;;;;;5065640;28;20063;-67
2024/03/26 09:03:07;;;;;;;3.80;2.10;;;9.50;68.40;;;;;;5067746;28;20035;-65
2024/03/26 09:05:33;;;;;;;3.08;2.08;;;9.50;67.90;;;;;;5067016;28;20021;-66
2024/03/26 09:07:59;;;;;;;5.80;2.78;;;9.40;68.00;;;;;;5066779;28;20134;-66
2024/03/26 09:10:24;;;;;;;4.68;2.08;;;9.40;68.40;;;;;;5068226;28;20012;-68
2024/03/26 09:12:51;;;;;;;3.08;1.70;;;9.40;68.40;;;;;;5063839;28;20108;-66
2024/03/26 09:15:16;;;;;;;3.83;2.10;;;9.60;68.60;;;;;;5067595;28;20024;-66
2024/03/26 09:17:42;;;;;;;3.80;2.03;;;9.60;68.40;;;;;;5068524;28;20036;-67
2024/03/26 09:20:09;;;;;;;2.63;2.00;;;9.60;68.30;;;;;;5068523;28;20073;-66
2024/03/26 09:22:35;;;;;;;3.38;2.20;;;9.60;68.30;;;;;;5068572;28;20510;-67
2024/03/26 09:25:00;;;;;;;3.13;1.88;;;9.60;68.40;;;;;;5067588;28;20073;-67
2024/03/26 09:27:26;;;;;;;4.78;2.15;;;9.60;68.40;;;;;;5068385;28;20025;-66
2024/03/26 09:29:52;;;;;;;3.08;1.80;;;9.60;68.50;;;;;;5067943;28;20020;-67
2024/03/26 09:32:17;;;;;;;2.25;1.73;;;9.70;68.60;;;;;;5068036;28;20099;-66
2024/03/26 09:34:43;;;;;;;3.67;2.33;;;9.80;68.60;;;;;;5068396;28;20051;-65
2024/03/26 09:37:10;;;;;;;4.05;2.17;;;9.80;68.20;;;;;;5060712;28;20028;-65
2024/03/26 09:39:36;;;;;;;4.03;2.20;;;9.80;68.30;;;;;;5066398;28;20028;-66
2024/03/26 09:42:03;;;;;;;3.50;1.90;;;9.80;68.40;;;;;;5064585;28;20029;-66
2024/03/26 09:44:30;;;;;;;2.75;1.70;;;9.80;68.40;;;;;;5066085;28;20021;-66
2024/03/26 09:46:57;;;;;;;2.28;1.80;;;9.90;68.60;;;;;;5065276;28;20048;-65
2024/03/26 09:49:26;;;;;;;4.72;2.30;;;9.90;68.50;;;;;;5063442;28;20031;-66
2024/03/26 09:51:53;;;;;;;3.88;1.80;;;10.00;68.40;;;;;;5065936;28;20040;-65
2024/03/26 09:54:19;;;;;;;3.08;2.30;;;10.10;68.30;;;;;;5064607;28;20136;-67
2024/03/26 09:56:45;;;;;;;3.33;2.33;;;10.30;68.10;;;;;;5064751;28;20028;-68
2024/03/26 09:59:11;;;;;;;3.17;2.00;;;10.30;67.70;;;;;;5067085;28;20024;-66
2024/03/26 10:01:39;;;;;;;3.58;1.98;;;10.30;67.80;;;;;;5061759;28;20032;-68
2024/03/26 10:04:05;;;;;;;4.20;2.22;;;10.40;67.70;;;;;;5067401;28;20028;-68
2024/03/26 10:06:32;;;;;;;4.90;2.33;;;10.40;67.50;;;;;;5063215;28;20023;-67
2024/03/26 10:08:58;;;;;;;3.95;2.40;;;10.40;67.10;;;;;;5065140;28;20150;-66
2024/03/26 10:11:25;;;;;;;2.85;1.77;;;10.40;67.20;;;;;;5065826;28;21309;-67
2024/03/26 10:13:52;;;;;;;2.60;1.75;;;10.50;67.50;;;;;;5063661;28;20029;-67
2024/03/26 10:16:17;;;;;;;2.60;2.08;;;10.50;67.20;;;;;;5064827;28;20386;-70
2024/03/26 10:18:43;;;;;;;3.47;2.10;;;10.50;67.40;;;;;;5066247;28;20028;-69
2024/03/26 10:21:09;;;;;;;3.03;1.83;;;10.60;67.00;;;;;;5061125;28;20048;-66
2024/03/26 10:23:34;;;;;;;3.90;1.95;;;10.70;67.30;;;;;;5066587;28;20530;-67
2024/03/26 10:26:00;;;;;;;3.03;1.70;;;10.80;67.20;;;;;;5064009;28;20024;-68
2024/03/26 10:28:26;;;;;;;2.53;1.77;;;10.70;66.90;;;;;;5067643;28;20031;-66
2024/03/26 10:30:52;;;;;;;3.13;2.15;;;10.70;66.90;;;;;;5066778;28;20025;-68
2024/03/26 10:33:22;;;;;;;4.15;2.00;;;10.70;67.20;;;;;;5071527;28;20036;-67
2024/03/26 10:35:54;;;;;;;2.92;1.70;;;10.80;67.80;;;;;;5068763;28;20078;-68
2024/03/26 10:38:22;;;;;;;3.33;2.30;;;10.80;67.30;;;;;;5066049;28;20109;-67
2024/03/26 10:40:58;;;;;;;5.35;2.50;;;10.90;66.90;;;;;;5069437;28;20174;-66
2024/03/26 10:43:25;;;;;;;3.38;2.30;;;10.90;66.80;;;;;;5065919;28;20429;-68
2024/03/26 10:45:51;;;;;;;3.92;2.00;;;10.80;67.10;;;;;;5073024;28;20069;-65
2024/03/26 10:48:18;;;;;;;3.38;1.90;;;11.00;67.20;;;;;;5070754;28;20403;-66
2024/03/26 10:50:45;;;;;;;3.35;2.15;;;11.00;67.00;;;;;;5070290;28;20024;-65
2024/03/26 10:53:13;;;;;;;2.33;1.63;;;11.10;66.90;;;;;;5071461;28;20021;-67
2024/03/26 10:55:39;;;;;;;2.53;1.90;;;11.20;66.80;;;;;;5068547;28;20032;-65
2024/03/26 10:58:04;;;;;;;3.30;1.83;;;11.30;67.00;;;;;;5065586;28;21297;-65
2024/03/26 11:00:32;;;;;;;3.88;1.75;;;11.40;66.80;;;;;;5068308;28;20032;-65
2024/03/26 11:03:00;;;;;;;2.90;1.77;;;11.40;66.60;;;;;;5070135;28;20035;-66
2024/03/26 11:05:26;;;;;;;3.08;2.10;;;11.30;66.50;;;;;;5068671;28;20024;-65
2024/03/26 11:07:52;;;;;;;3.28;2.28;;;11.30;66.80;;;;;;5068619;28;20020;-66
2024/03/26 11:10:18;;;;;;;3.28;1.90;;;11.40;67.00;;;;;;5072444;28;20025;-66
2024/03/26 11:12:49;;;;;;;2.30;1.70;;;11.50;66.90;;;;;;5070945;28;20032;-67
2024/03/26 11:15:14;;;;;;;2.78;1.80;;;11.60;67.00;;;;;;5064605;28;20356;-66
2024/03/26 11:18:00;;;;;;;2.08;1.50;;;11.70;66.80;;;;;;5067998;28;20059;-66
2024/03/26 11:20:27;;;;;;;3.13;2.00;;;11.80;66.60;;;;;;5067431;28;20039;-65
2024/03/26 11:22:57;;;;;;;2.65;1.77;;;11.80;66.50;;;;;;5069778;28;20059;-66
2024/03/26 11:25:26;;;;;;;2.35;1.80;;;11.80;66.40;;;;;;5071201;28;20024;-67
2024/03/26 11:27:53;;;;;;;3.78;1.98;;;11.90;66.60;;;;;;5068713;28;20032;-64
2024/03/26 11:30:19;;;;;;;3.97;2.20;;;11.90;66.50;;;;;;5071153;28;20021;-66
2024/03/26 11:32:45;;;;;;;2.45;1.85;;;11.90;66.20;;;;;;5068786;28;20406;-65
2024/03/26 11:35:22;;;;;;;4.35;2.78;;;12.00;66.40;;;;;;5066421;28;20032;-66
2024/03/26 11:37:49;;;;;;;3.65;2.13;;;12.10;66.30;;;;;;5068914;28;20445;-67
2024/03/26 11:40:16;;;;;;;2.17;1.70;;;12.20;66.20;;;;;;5068154;28;20078;-66
2024/03/26 11:42:46;;;;;;;2.88;1.65;;;12.20;66.20;;;;;;5068562;28;20029;-66
2024/03/26 11:45:12;;;;;;;2.17;1.67;;;12.30;66.20;;;;;;5071390;28;20028;-65
2024/03/26 11:47:38;;;;;;;3.25;1.70;;;12.50;66.00;;;;;;5068001;28;20110;-65
2024/03/26 11:50:06;;;;;;;4.03;1.77;;;12.50;65.40;;;;;;5071717;28;20111;-65
2024/03/26 11:52:32;;;;;;;4.38;1.90;;;12.50;65.80;;;;;;5065158;28;20016;-66
2024/03/26 11:54:59;;;;;;;4.35;2.28;;;12.50;65.90;;;;;;5067753;28;20360;-66
2024/03/26 11:57:25;;;;;;;2.92;1.80;;;12.60;65.90;;;;;;5066893;28;20545;-68
2024/03/26 11:59:52;;;;;;;3.10;2.40;;;12.60;65.80;;;;;;5068011;28;20040;-65
2024/03/26 12:02:18;;;;;;;2.20;1.60;;;12.80;65.40;;;;;;5067129;28;20115;-67
2024/03/26 12:04:43;;;;;;;3.28;1.95;;;12.90;65.20;;;;;;5066989;28;20112;-66
2024/03/26 12:07:12;;;;;;;2.30;1.75;;;12.90;65.00;;;;;;5065691;28;20094;-68
2024/03/26 12:09:38;;;;;;;2.80;1.70;;;13.00;64.60;;;;;;5069712;28;20120;-66
2024/03/26 12:12:06;;;;;;;5.75;2.63;;;13.10;65.10;;;;;;5066242;28;20509;-65
2024/03/26 12:14:32;;;;;;;3.65;2.33;;;13.20;64.20;;;;;;5065281;28;20027;-66
2024/03/26 12:16:58;;;;;;;3.50;2.30;;;13.30;64.20;;;;;;5064940;28;20020;-67
2024/03/26 12:19:26;;;;;;;6.38;1.90;;;13.40;64.10;;;;;;5070992;28;20094;-67
2024/03/26 12:21:52;;;;;;;3.25;1.70;;;13.50;64.20;;;;;;5067749;28;20407;-67
2024/03/26 12:24:17;;;;;;;3.80;1.70;;;13.60;63.90;;;;;;5066935;28;20027;-65
2024/03/26 12:26:43;;;;;;;2.38;1.50;;;13.50;63.50;;;;;;5063393;28;20654;-66
2024/03/26 12:29:10;;;;;;;3.35;1.73;;;13.50;64.00;;;;;;5066025;28;20035;-66
2024/03/26 12:31:41;;;;;;;3.17;2.00;;;13.30;64.00;;;;;;5068927;28;20023;-66
2024/03/26 12:34:11;;;;;;;5.03;2.55;;;13.30;64.30;;;;;;5066219;28;20042;-65
2024/03/26 12:36:37;;;;;;;3.42;2.00;;;13.30;64.30;;;;;;5065956;28;20024;-66
2024/03/26 12:39:05;;;;;;;3.67;2.08;;;13.30;64.10;;;;;;5060322;28;20028;-66
2024/03/26 12:41:31;;;;;;;4.55;2.05;;;13.40;64.10;;;;;;5060309;28;20064;-66
2024/03/26 12:43:57;;;;;;;2.70;1.58;;;13.30;64.20;;;;;;5062300;28;20102;-68
2024/03/26 12:46:22;;;;;;;3.05;1.58;;;13.20;64.20;;;;;;5062582;28;20480;-66
2024/03/26 12:48:48;;;;;;;3.58;1.83;;;13.30;64.40;;;;;;5065718;28;20056;-66